Terminal Aerodrome Forecast
Issued by NWS Charleston, WV

Current Version | Previous Version | Graphics & Text | Print | Product List | Glossary On
Versions: 1 2 3 4 5 6 7 8 9 10 11 12 13 14 15 16 17 18 19 20 21 22 23 24 25
042
FTUS41 KRLX 160304 AAA
TAFPKB
TAF AMD
KPKB 160304Z 1603/1624 00000KT 5SM BR BKN025 OVC150
     FM160700 VRB03KT 2SM BR OVC012
     FM160900 00000KT 2SM BR OVC008
     FM161200 00000KT 3SM BR OVC006
     FM161900 00000KT P6SM BKN011=

USA.gov is the U.S. government's official web portal to all federal, state and local government web resources and services.